createdAt,value
2023-04-19T00:00:08.965Z,16.10
2023-04-19T00:05:12.963Z,17.10
2023-04-19T00:10:14.480Z,15.90
2023-04-19T00:15:15.544Z,14.10
2023-04-19T00:20:16.697Z,14.60
2023-04-19T00:25:17.717Z,11.90
2023-04-19T00:30:18.806Z,15.20
2023-04-19T00:35:19.870Z,14.00
2023-04-19T00:40:21.127Z,9.90
2023-04-19T00:45:22.127Z,13.60
2023-04-19T00:50:23.500Z,13.10
2023-04-19T00:55:24.610Z,12.00
2023-04-19T01:00:25.780Z,12.20
2023-04-19T01:05:26.766Z,13.50
2023-04-19T01:10:27.817Z,12.00
2023-04-19T01:15:29.567Z,12.30
2023-04-19T01:20:30.644Z,11.60
2023-04-19T01:25:31.637Z,12.70
2023-04-19T01:30:34.935Z,10.80
2023-04-19T01:35:36.209Z,12.30
2023-04-19T01:40:37.285Z,11.00
2023-04-19T01:45:38.885Z,6.90
2023-04-19T01:50:39.890Z,10.80
2023-04-19T01:55:40.911Z,11.00
2023-04-19T02:00:42.025Z,11.80
2023-04-19T02:05:43.035Z,10.80
2023-04-19T02:10:48.259Z,10.80
2023-04-19T02:15:49.785Z,10.30
2023-04-19T02:20:51.208Z,12.70
2023-04-19T02:25:52.826Z,10.70
2023-04-19T02:30:53.839Z,11.10
2023-04-19T02:35:54.813Z,10.70
2023-04-19T02:40:55.799Z,10.10
2023-04-19T02:45:56.938Z,10.40
2023-04-19T02:50:58.343Z,9.40
2023-04-19T02:55:59.579Z,7.10
2023-04-19T03:01:00.852Z,8.20
2023-04-19T03:06:02.676Z,11.50
2023-04-19T03:11:06.185Z,12.80
2023-04-19T03:16:08.302Z,9.90
2023-04-19T03:21:10.649Z,11.60
2023-04-19T03:26:27.001Z,11.80
2023-04-19T03:31:30.578Z,10.90
2023-04-19T03:36:32.786Z,11.90
2023-04-19T03:41:34.050Z,11.70
2023-04-19T03:46:45.542Z,13.10
2023-04-19T03:51:48.154Z,12.90
2023-04-19T03:56:49.401Z,13.40
2023-04-19T04:01:50.720Z,9.20
2023-04-19T04:06:52.561Z,12.10
2023-04-19T04:11:53.720Z,12.90
2023-04-19T04:16:55.255Z,11.20
2023-04-19T04:21:56.567Z,15.40
2023-04-19T04:27:00.171Z,11.50
2023-04-19T04:32:10.389Z,10.70
2023-04-19T04:37:13.846Z,11.40
2023-04-19T04:42:15.368Z,7.70
2023-04-19T04:47:16.911Z,10.20
2023-04-19T04:52:23.530Z,9.20
2023-04-19T04:57:40.516Z,9.40
2023-04-19T05:02:43.545Z,9.80
2023-04-19T05:07:45.206Z,7.90
2023-04-19T05:12:46.577Z,8.00
2023-04-19T05:17:48.183Z,10.00
2023-04-19T05:22:49.702Z,9.50
2023-04-19T05:27:51.262Z,7.70
2023-04-19T05:32:52.692Z,10.60
2023-04-19T05:37:53.970Z,11.60
2023-04-19T05:42:55.000Z,10.80
2023-04-19T05:47:56.326Z,10.00
2023-04-19T05:53:23.608Z,11.50
2023-04-19T05:58:27.394Z,9.30
2023-04-19T06:03:31.223Z,10.30
2023-04-19T06:08:33.800Z,8.30
2023-04-19T06:13:35.372Z,8.00
2023-04-19T06:18:36.646Z,8.30
2023-04-19T06:23:37.805Z,8.70
2023-04-19T06:28:38.818Z,9.00
2023-04-19T06:33:40.033Z,7.20
2023-04-19T06:38:41.156Z,7.20
2023-04-19T06:43:42.213Z,7.60
2023-04-19T06:48:43.195Z,6.20
2023-04-19T06:53:44.167Z,6.00
2023-04-19T06:58:45.230Z,5.60
2023-04-19T07:03:46.468Z,6.20
2023-04-19T07:08:50.345Z,6.20
2023-04-19T07:13:51.846Z,7.30
2023-04-19T07:18:53.353Z,8.10
2023-04-19T07:23:54.309Z,7.50
2023-04-19T07:28:56.394Z,5.70
2023-04-19T07:33:57.396Z,5.10
2023-04-19T07:38:58.425Z,5.20
2023-04-19T07:43:59.542Z,3.10
2023-04-19T07:49:00.542Z,9.00
2023-04-19T07:54:01.514Z,7.20
2023-04-19T07:59:08.417Z,7.90
2023-04-19T08:04:10.542Z,7.60
2023-04-19T08:09:11.855Z,4.20
2023-04-19T08:14:30.624Z,8.30
2023-04-19T08:19:34.035Z,5.30
2023-04-19T08:24:35.080Z,8.10
2023-04-19T08:29:38.123Z,7.20
2023-04-19T08:34:39.680Z,9.10
2023-04-19T08:39:41.071Z,7.10
2023-04-19T08:45:02.256Z,10.90
2023-04-19T08:50:17.476Z,9.70
2023-04-19T08:55:27.087Z,12.00
2023-04-19T09:00:28.318Z,16.10
2023-04-19T09:05:30.563Z,11.20
2023-04-19T09:10:31.841Z,14.20
2023-04-19T09:15:38.682Z,11.30
2023-04-19T09:20:42.058Z,9.70
2023-04-19T09:26:19.287Z,11.40
2023-04-19T09:31:43.463Z,13.00
2023-04-19T09:36:52.446Z,14.80
2023-04-19T09:41:58.685Z,11.70
2023-04-19T09:46:59.992Z,7.70
2023-04-19T09:52:03.057Z,12.70
2023-04-19T09:57:04.844Z,11.30
2023-04-19T10:02:07.040Z,11.90
2023-04-19T10:07:29.090Z,8.10
2023-04-19T10:12:52.281Z,13.90
2023-04-19T10:17:53.091Z,10.00
2023-04-19T10:22:54.675Z,14.10
2023-04-19T10:27:56.886Z,10.70
2023-04-19T10:33:02.450Z,13.30
2023-04-19T10:38:15.684Z,8.80
2023-04-19T10:43:18.706Z,14.70
2023-04-19T10:48:35.011Z,12.10
2023-04-19T10:53:57.277Z,12.60
2023-04-19T10:59:01.948Z,10.80
2023-04-19T11:04:03.745Z,9.50
2023-04-19T11:09:06.492Z,12.40
2023-04-19T11:14:08.868Z,10.00
2023-04-19T11:19:09.934Z,9.10
2023-04-19T11:24:12.323Z,10.30
2023-04-19T11:29:14.029Z,8.00
2023-04-19T11:34:15.477Z,9.70
2023-04-19T11:39:17.168Z,7.30
2023-04-19T11:44:19.688Z,10.30
2023-04-19T11:49:28.776Z,12.10
2023-04-19T11:54:29.872Z,6.60
2023-04-19T11:59:32.808Z,5.60
2023-04-19T12:04:34.821Z,5.90
2023-04-19T12:09:36.429Z,7.50
2023-04-19T12:14:38.358Z,3.70
2023-04-19T12:19:45.496Z,6.10
2023-04-19T12:24:46.568Z,6.90
2023-04-19T12:29:47.516Z,5.60
2023-04-19T12:34:48.486Z,4.60
2023-04-19T12:39:49.462Z,6.40
2023-04-19T12:44:50.442Z,5.40
2023-04-19T12:49:51.390Z,7.10
2023-04-19T12:54:52.396Z,6.60
2023-04-19T12:59:53.449Z,6.00
2023-04-19T13:04:54.961Z,4.80
2023-04-19T13:09:56.807Z,6.70
2023-04-19T13:14:58.293Z,7.90
2023-04-19T13:19:59.309Z,7.60
2023-04-19T13:25:00.711Z,7.30
2023-04-19T13:30:02.009Z,5.70
2023-04-19T13:35:05.103Z,6.30
2023-04-19T13:40:17.863Z,6.00
2023-04-19T13:45:20.303Z,6.00
2023-04-19T13:50:21.311Z,5.70
2023-04-19T13:55:22.319Z,6.00
2023-04-19T14:00:23.455Z,8.00
2023-04-19T14:05:24.583Z,7.50
2023-04-19T14:10:25.636Z,9.00
2023-04-19T14:15:26.670Z,6.50
2023-04-19T14:20:27.750Z,10.70
2023-04-19T14:25:28.748Z,8.60
2023-04-19T14:30:31.135Z,11.40
2023-04-19T14:35:32.447Z,9.50
2023-04-19T14:40:33.502Z,9.80
2023-04-19T14:45:34.577Z,11.00
2023-04-19T14:50:35.643Z,11.60
2023-04-19T14:55:37.389Z,9.80
2023-04-19T15:00:38.388Z,11.40
2023-04-19T15:05:39.591Z,12.80
2023-04-19T15:10:40.770Z,9.10
2023-04-19T15:15:41.732Z,14.00
2023-04-19T15:20:42.674Z,10.50
2023-04-19T15:25:44.205Z,8.10
2023-04-19T15:30:56.080Z,12.40
2023-04-19T15:35:58.983Z,8.50
2023-04-19T15:41:03.089Z,10.30
2023-04-19T15:51:06.496Z,11.30
2023-04-19T15:56:08.068Z,17.10
2023-04-19T16:01:12.943Z,19.90
2023-04-19T16:06:14.255Z,11.40
2023-04-19T16:11:17.180Z,17.00
2023-04-19T16:16:20.264Z,17.30
2023-04-19T16:21:22.413Z,15.80
2023-04-19T16:26:25.079Z,18.10
2023-04-19T16:31:26.542Z,14.90
2023-04-19T16:36:27.742Z,20.10
2023-04-19T16:41:29.291Z,14.90
2023-04-19T16:46:30.704Z,17.70
2023-04-19T16:51:32.122Z,12.30
2023-04-19T16:56:33.177Z,14.80
2023-04-19T17:01:34.148Z,12.80
2023-04-19T17:06:35.210Z,16.80
2023-04-19T17:11:36.185Z,20.00
2023-04-19T17:16:37.207Z,20.20
2023-04-19T17:21:38.222Z,23.80
2023-04-19T17:26:39.429Z,23.70
2023-04-19T17:31:40.486Z,23.00
2023-04-19T17:36:41.773Z,17.10
2023-04-19T17:41:44.010Z,16.00
2023-04-19T17:46:45.234Z,25.10
2023-04-19T17:51:46.980Z,26.70
2023-04-19T17:56:49.675Z,23.30
2023-04-19T18:01:50.679Z,34.10
2023-04-19T18:06:51.778Z,58.80
2023-04-19T18:11:52.959Z,22.40
2023-04-19T18:16:54.116Z,24.70
2023-04-19T18:21:55.378Z,19.50
2023-04-19T18:26:57.570Z,17.90
2023-04-19T18:31:58.579Z,23.20
2023-04-19T18:37:02.271Z,25.70
2023-04-19T18:42:03.271Z,16.60
2023-04-19T18:47:05.951Z,24.00
2023-04-19T18:52:06.920Z,25.40
2023-04-19T18:57:22.460Z,27.60
2023-04-19T19:02:25.635Z,15.30
2023-04-19T19:12:32.076Z,22.70
2023-04-19T19:17:33.122Z,28.90
2023-04-19T19:22:34.402Z,28.90
2023-04-19T19:27:36.911Z,27.50
2023-04-19T19:32:39.520Z,15.60
2023-04-19T19:37:40.648Z,21.10
2023-04-19T19:42:41.746Z,28.40
2023-04-19T19:47:45.326Z,27.60
2023-04-19T19:52:47.096Z,25.70
2023-04-19T19:58:23.790Z,31.10
2023-04-19T20:03:10.208Z,29.10
2023-04-19T20:08:13.179Z,31.10
2023-04-19T20:13:14.444Z,34.50
2023-04-19T20:18:17.122Z,19.90
2023-04-19T20:23:19.262Z,32.80
2023-04-19T20:28:20.387Z,36.90
2023-04-19T20:33:21.853Z,36.60
2023-04-19T20:38:23.720Z,29.20
2023-04-19T20:43:24.795Z,36.70
2023-04-19T20:48:25.775Z,33.40
2023-04-19T20:53:26.802Z,29.20
2023-04-19T20:58:27.825Z,29.40
2023-04-19T21:03:29.051Z,31.20
2023-04-19T21:08:30.910Z,33.60
2023-04-19T21:13:35.654Z,32.90
2023-04-19T21:18:36.952Z,31.70
2023-04-19T21:23:38.376Z,30.80
2023-04-19T21:28:39.667Z,19.50
2023-04-19T21:33:43.390Z,20.80
2023-04-19T21:38:44.435Z,30.00
2023-04-19T21:43:46.261Z,25.40
2023-04-19T21:48:47.287Z,27.40
2023-04-19T21:53:50.106Z,28.80
2023-04-19T21:58:51.062Z,25.00
2023-04-19T22:03:55.994Z,18.90
2023-04-19T22:09:02.373Z,31.30
2023-04-19T22:14:03.877Z,33.10
2023-04-19T22:19:04.883Z,36.60
2023-04-19T22:24:06.728Z,18.20
2023-04-19T22:29:07.803Z,28.40
2023-04-19T22:34:08.801Z,27.00
2023-04-19T22:39:09.863Z,32.60
2023-04-19T22:44:11.165Z,28.90
2023-04-19T22:49:12.638Z,28.20
2023-04-19T22:54:16.819Z,28.80
2023-04-19T22:59:18.216Z,22.00
2023-04-19T23:04:19.766Z,26.40
2023-04-19T23:09:23.904Z,29.70
2023-04-19T23:14:30.692Z,27.20
2023-04-19T23:19:31.685Z,18.30
2023-04-19T23:24:35.423Z,23.30
2023-04-19T23:29:36.451Z,25.90
2023-04-19T23:34:37.472Z,23.90
2023-04-19T23:39:39.150Z,25.80
2023-04-19T23:44:43.818Z,24.10
2023-04-19T23:49:51.734Z,26.70
2023-04-19T23:54:52.721Z,23.70
2023-04-19T23:59:53.716Z,23.50
